sensor_id;sensor_type;location;lat;lon;timestamp;P1;durP1;ratioP1;P2;durP2;ratioP2
21181;SDS011;10749;46.296;7.524;2023-10-13T00:00:21;6.07;;;2.10;;
21181;SDS011;10749;46.296;7.524;2023-10-13T00:02:55;7.72;;;2.10;;
21181;SDS011;10749;46.296;7.524;2023-10-13T00:05:25;4.68;;;2.22;;
21181;SDS011;10749;46.296;7.524;2023-10-13T00:07:51;4.15;;;1.90;;
21181;SDS011;10749;46.296;7.524;2023-10-13T00:10:17;8.18;;;2.30;;
21181;SDS011;10749;46.296;7.524;2023-10-13T00:12:43;6.05;;;2.00;;
21181;SDS011;10749;46.296;7.524;2023-10-13T00:15:15;5.55;;;2.20;;
21181;SDS011;10749;46.296;7.524;2023-10-13T00:17:52;3.88;;;1.90;;
21181;SDS011;10749;46.296;7.524;2023-10-13T00:20:20;4.18;;;1.63;;
21181;SDS011;10749;46.296;7.524;2023-10-13T00:23:14;5.45;;;1.98;;
21181;SDS011;10749;46.296;7.524;2023-10-13T00:25:44;6.40;;;2.00;;
21181;SDS011;10749;46.296;7.524;2023-10-13T00:28:15;4.72;;;1.77;;
21181;SDS011;10749;46.296;7.524;2023-10-13T00:30:48;6.38;;;1.80;;
21181;SDS011;10749;46.296;7.524;2023-10-13T00:33:16;6.03;;;2.20;;
21181;SDS011;10749;46.296;7.524;2023-10-13T00:35:45;4.95;;;2.00;;
21181;SDS011;10749;46.296;7.524;2023-10-13T00:38:12;4.37;;;1.87;;
21181;SDS011;10749;46.296;7.524;2023-10-13T00:40:39;6.25;;;2.17;;
21181;SDS011;10749;46.296;7.524;2023-10-13T00:43:06;5.15;;;2.28;;
21181;SDS011;10749;46.296;7.524;2023-10-13T00:45:44;3.35;;;1.92;;
21181;SDS011;10749;46.296;7.524;2023-10-13T00:48:30;4.18;;;1.67;;
21181;SDS011;10749;46.296;7.524;2023-10-13T00:51:00;4.72;;;2.00;;
21181;SDS011;10749;46.296;7.524;2023-10-13T00:53:34;3.75;;;2.10;;
21181;SDS011;10749;46.296;7.524;2023-10-13T00:56:09;7.43;;;2.35;;
21181;SDS011;10749;46.296;7.524;2023-10-13T00:58:43;3.25;;;1.92;;
21181;SDS011;10749;46.296;7.524;2023-10-13T01:01:15;6.80;;;2.37;;
21181;SDS011;10749;46.296;7.524;2023-10-13T01:03:47;5.03;;;2.08;;
21181;SDS011;10749;46.296;7.524;2023-10-13T01:06:15;5.50;;;1.92;;
21181;SDS011;10749;46.296;7.524;2023-10-13T01:08:41;5.63;;;1.80;;
21181;SDS011;10749;46.296;7.524;2023-10-13T01:11:09;5.18;;;1.77;;
21181;SDS011;10749;46.296;7.524;2023-10-13T01:13:35;3.67;;;1.73;;
21181;SDS011;10749;46.296;7.524;2023-10-13T01:16:02;3.17;;;1.75;;
21181;SDS011;10749;46.296;7.524;2023-10-13T01:18:32;4.00;;;1.80;;
21181;SDS011;10749;46.296;7.524;2023-10-13T01:21:04;6.57;;;1.45;;
21181;SDS011;10749;46.296;7.524;2023-10-13T01:23:32;3.97;;;1.50;;
21181;SDS011;10749;46.296;7.524;2023-10-13T01:26:03;5.40;;;1.75;;
21181;SDS011;10749;46.296;7.524;2023-10-13T01:28:30;5.30;;;1.88;;
21181;SDS011;10749;46.296;7.524;2023-10-13T01:31:06;5.17;;;2.00;;
21181;SDS011;10749;46.296;7.524;2023-10-13T01:33:33;3.45;;;1.80;;
21181;SDS011;10749;46.296;7.524;2023-10-13T01:35:59;3.28;;;1.58;;
21181;SDS011;10749;46.296;7.524;2023-10-13T01:38:31;4.53;;;2.17;;
21181;SDS011;10749;46.296;7.524;2023-10-13T01:40:58;5.07;;;1.98;;
21181;SDS011;10749;46.296;7.524;2023-10-13T01:43:24;5.78;;;1.90;;
21181;SDS011;10749;46.296;7.524;2023-10-13T01:45:49;5.25;;;1.95;;
21181;SDS011;10749;46.296;7.524;2023-10-13T01:48:15;3.70;;;1.90;;
21181;SDS011;10749;46.296;7.524;2023-10-13T01:50:42;3.93;;;1.80;;
21181;SDS011;10749;46.296;7.524;2023-10-13T01:53:12;3.60;;;1.73;;
21181;SDS011;10749;46.296;7.524;2023-10-13T01:55:43;4.15;;;1.75;;
21181;SDS011;10749;46.296;7.524;2023-10-13T01:58:14;4.15;;;1.55;;
21181;SDS011;10749;46.296;7.524;2023-10-13T02:00:43;7.47;;;2.00;;
21181;SDS011;10749;46.296;7.524;2023-10-13T02:03:10;3.55;;;2.00;;
21181;SDS011;10749;46.296;7.524;2023-10-13T02:05:40;5.78;;;1.77;;
21181;SDS011;10749;46.296;7.524;2023-10-13T02:08:09;5.17;;;1.80;;
21181;SDS011;10749;46.296;7.524;2023-10-13T02:10:36;3.60;;;1.65;;
21181;SDS011;10749;46.296;7.524;2023-10-13T02:13:08;4.18;;;1.80;;
21181;SDS011;10749;46.296;7.524;2023-10-13T02:15:40;4.73;;;1.97;;
21181;SDS011;10749;46.296;7.524;2023-10-13T02:18:07;3.47;;;1.70;;
21181;SDS011;10749;46.296;7.524;2023-10-13T02:20:34;4.70;;;1.60;;
21181;SDS011;10749;46.296;7.524;2023-10-13T02:23:06;3.73;;;1.40;;
21181;SDS011;10749;46.296;7.524;2023-10-13T02:25:35;3.17;;;1.50;;
21181;SDS011;10749;46.296;7.524;2023-10-13T02:28:07;8.60;;;1.92;;
21181;SDS011;10749;46.296;7.524;2023-10-13T02:30:42;6.07;;;1.77;;
21181;SDS011;10749;46.296;7.524;2023-10-13T02:33:13;4.27;;;1.90;;
21181;SDS011;10749;46.296;7.524;2023-10-13T02:35:42;4.80;;;1.70;;
21181;SDS011;10749;46.296;7.524;2023-10-13T02:38:20;4.03;;;1.70;;
21181;SDS011;10749;46.296;7.524;2023-10-13T02:40:58;6.40;;;2.20;;
21181;SDS011;10749;46.296;7.524;2023-10-13T02:43:30;5.07;;;2.10;;
21181;SDS011;10749;46.296;7.524;2023-10-13T02:45:59;4.23;;;1.77;;
21181;SDS011;10749;46.296;7.524;2023-10-13T02:48:25;4.45;;;2.17;;
21181;SDS011;10749;46.296;7.524;2023-10-13T02:50:56;4.03;;;1.90;;
21181;SDS011;10749;46.296;7.524;2023-10-13T02:53:27;4.70;;;1.80;;
21181;SDS011;10749;46.296;7.524;2023-10-13T02:55:54;5.83;;;2.03;;
21181;SDS011;10749;46.296;7.524;2023-10-13T02:58:29;8.27;;;2.28;;
21181;SDS011;10749;46.296;7.524;2023-10-13T03:01:04;7.43;;;1.80;;
21181;SDS011;10749;46.296;7.524;2023-10-13T03:03:48;4.73;;;2.23;;
21181;SDS011;10749;46.296;7.524;2023-10-13T03:06:19;3.87;;;1.93;;
21181;SDS011;10749;46.296;7.524;2023-10-13T03:08:48;3.27;;;1.93;;
21181;SDS011;10749;46.296;7.524;2023-10-13T03:11:13;4.27;;;1.87;;
21181;SDS011;10749;46.296;7.524;2023-10-13T03:13:39;3.90;;;2.00;;
21181;SDS011;10749;46.296;7.524;2023-10-13T03:16:15;4.75;;;1.58;;
21181;SDS011;10749;46.296;7.524;2023-10-13T03:18:42;5.63;;;2.07;;
21181;SDS011;10749;46.296;7.524;2023-10-13T03:21:17;5.77;;;2.03;;
21181;SDS011;10749;46.296;7.524;2023-10-13T03:23:54;4.63;;;1.97;;
21181;SDS011;10749;46.296;7.524;2023-10-13T03:26:20;5.63;;;2.17;;
21181;SDS011;10749;46.296;7.524;2023-10-13T03:28:46;5.20;;;1.60;;
21181;SDS011;10749;46.296;7.524;2023-10-13T03:31:20;4.33;;;1.90;;
21181;SDS011;10749;46.296;7.524;2023-10-13T03:33:48;6.30;;;2.00;;
21181;SDS011;10749;46.296;7.524;2023-10-13T03:36:14;5.57;;;2.40;;
21181;SDS011;10749;46.296;7.524;2023-10-13T03:38:59;5.73;;;1.80;;
21181;SDS011;10749;46.296;7.524;2023-10-13T03:41:24;3.47;;;1.80;;
21181;SDS011;10749;46.296;7.524;2023-10-13T03:43:55;4.83;;;1.77;;
21181;SDS011;10749;46.296;7.524;2023-10-13T03:46:32;3.07;;;1.80;;
21181;SDS011;10749;46.296;7.524;2023-10-13T03:49:01;6.00;;;1.60;;
21181;SDS011;10749;46.296;7.524;2023-10-13T03:51:31;4.43;;;1.47;;
21181;SDS011;10749;46.296;7.524;2023-10-13T03:53:56;4.47;;;2.00;;
21181;SDS011;10749;46.296;7.524;2023-10-13T03:56:28;4.53;;;1.60;;
21181;SDS011;10749;46.296;7.524;2023-10-13T03:59:06;3.37;;;1.77;;
21181;SDS011;10749;46.296;7.524;2023-10-13T04:01:38;3.73;;;1.93;;
21181;SDS011;10749;46.296;7.524;2023-10-13T04:04:26;4.90;;;1.90;;
21181;SDS011;10749;46.296;7.524;2023-10-13T04:07:14;4.70;;;1.70;;
21181;SDS011;10749;46.296;7.524;2023-10-13T04:10:07;2.93;;;1.67;;
21181;SDS011;10749;46.296;7.524;2023-10-13T04:12:55;7.37;;;1.73;;
21181;SDS011;10749;46.296;7.524;2023-10-13T04:15:39;3.10;;;1.47;;
21181;SDS011;10749;46.296;7.524;2023-10-13T04:18:24;3.43;;;1.40;;
21181;SDS011;10749;46.296;7.524;2023-10-13T04:21:11;4.53;;;1.70;;
21181;SDS011;10749;46.296;7.524;2023-10-13T04:23:57;4.57;;;1.80;;
21181;SDS011;10749;46.296;7.524;2023-10-13T04:26:41;5.30;;;1.90;;
21181;SDS011;10749;46.296;7.524;2023-10-13T04:29:26;4.27;;;1.73;;
21181;SDS011;10749;46.296;7.524;2023-10-13T04:32:10;3.83;;;1.50;;
21181;SDS011;10749;46.296;7.524;2023-10-13T04:34:39;5.07;;;2.20;;
21181;SDS011;10749;46.296;7.524;2023-10-13T04:37:04;9.03;;;1.93;;
21181;SDS011;10749;46.296;7.524;2023-10-13T04:39:47;4.67;;;1.90;;
21181;SDS011;10749;46.296;7.524;2023-10-13T04:42:21;8.00;;;1.93;;
21181;SDS011;10749;46.296;7.524;2023-10-13T04:45:04;4.33;;;1.67;;
21181;SDS011;10749;46.296;7.524;2023-10-13T04:47:41;6.00;;;1.83;;
21181;SDS011;10749;46.296;7.524;2023-10-13T04:50:22;4.47;;;2.10;;
21181;SDS011;10749;46.296;7.524;2023-10-13T04:52:52;4.13;;;1.90;;
21181;SDS011;10749;46.296;7.524;2023-10-13T04:55:27;6.63;;;1.90;;
21181;SDS011;10749;46.296;7.524;2023-10-13T04:58:13;8.23;;;2.33;;
21181;SDS011;10749;46.296;7.524;2023-10-13T05:03:49;5.27;;;2.00;;
21181;SDS011;10749;46.296;7.524;2023-10-13T05:06:30;3.30;;;2.00;;
21181;SDS011;10749;46.296;7.524;2023-10-13T05:09:07;4.03;;;1.80;;
21181;SDS011;10749;46.296;7.524;2023-10-13T05:11:51;3.97;;;1.67;;
21181;SDS011;10749;46.296;7.524;2023-10-13T05:14:35;4.37;;;1.80;;
21181;SDS011;10749;46.296;7.524;2023-10-13T05:17:19;5.27;;;1.70;;
21181;SDS011;10749;46.296;7.524;2023-10-13T05:20:03;4.37;;;1.70;;
21181;SDS011;10749;46.296;7.524;2023-10-13T05:22:47;4.97;;;1.87;;
21181;SDS011;10749;46.296;7.524;2023-10-13T05:25:34;5.80;;;1.70;;
21181;SDS011;10749;46.296;7.524;2023-10-13T05:28:22;5.83;;;2.03;;
21181;SDS011;10749;46.296;7.524;2023-10-13T05:31:06;4.50;;;1.97;;
21181;SDS011;10749;46.296;7.524;2023-10-13T05:33:50;5.63;;;1.80;;
21181;SDS011;10749;46.296;7.524;2023-10-13T05:36:35;6.33;;;1.87;;
21181;SDS011;10749;46.296;7.524;2023-10-13T05:39:19;8.63;;;1.83;;
21181;SDS011;10749;46.296;7.524;2023-10-13T05:42:03;7.47;;;1.80;;
21181;SDS011;10749;46.296;7.524;2023-10-13T05:44:47;5.60;;;1.77;;
21181;SDS011;10749;46.296;7.524;2023-10-13T05:47:21;3.17;;;1.93;;
21181;SDS011;10749;46.296;7.524;2023-10-13T05:50:08;4.93;;;1.60;;
21181;SDS011;10749;46.296;7.524;2023-10-13T05:52:46;4.57;;;1.63;;
21181;SDS011;10749;46.296;7.524;2023-10-13T05:55:25;4.27;;;1.60;;
21181;SDS011;10749;46.296;7.524;2023-10-13T05:58:11;3.63;;;1.70;;
21181;SDS011;10749;46.296;7.524;2023-10-13T06:00:55;3.17;;;1.60;;
21181;SDS011;10749;46.296;7.524;2023-10-13T06:03:39;9.83;;;1.90;;
21181;SDS011;10749;46.296;7.524;2023-10-13T06:06:23;7.03;;;1.93;;
21181;SDS011;10749;46.296;7.524;2023-10-13T06:09:07;7.13;;;2.10;;
21181;SDS011;10749;46.296;7.524;2023-10-13T06:11:51;7.20;;;2.20;;
21181;SDS011;10749;46.296;7.524;2023-10-13T06:14:35;5.27;;;1.70;;
21181;SDS011;10749;46.296;7.524;2023-10-13T06:17:19;4.57;;;2.10;;
21181;SDS011;10749;46.296;7.524;2023-10-13T06:20:03;5.37;;;1.70;;
21181;SDS011;10749;46.296;7.524;2023-10-13T06:22:48;6.30;;;1.97;;
21181;SDS011;10749;46.296;7.524;2023-10-13T06:25:32;4.60;;;1.60;;
21181;SDS011;10749;46.296;7.524;2023-10-13T06:28:16;4.37;;;1.60;;
21181;SDS011;10749;46.296;7.524;2023-10-13T06:31:00;4.20;;;1.50;;
21181;SDS011;10749;46.296;7.524;2023-10-13T06:33:31;9.17;;;2.10;;
21181;SDS011;10749;46.296;7.524;2023-10-13T06:35:58;7.80;;;1.93;;
21181;SDS011;10749;46.296;7.524;2023-10-13T06:38:39;8.17;;;1.90;;
21181;SDS011;10749;46.296;7.524;2023-10-13T06:41:05;4.90;;;2.17;;
21181;SDS011;10749;46.296;7.524;2023-10-13T06:43:31;5.17;;;2.23;;
21181;SDS011;10749;46.296;7.524;2023-10-13T06:45:57;6.10;;;2.10;;
21181;SDS011;10749;46.296;7.524;2023-10-13T06:48:28;6.47;;;2.30;;
21181;SDS011;10749;46.296;7.524;2023-10-13T06:50:59;7.63;;;2.53;;
21181;SDS011;10749;46.296;7.524;2023-10-13T06:53:30;6.30;;;2.13;;
21181;SDS011;10749;46.296;7.524;2023-10-13T06:56:01;6.03;;;2.03;;
21181;SDS011;10749;46.296;7.524;2023-10-13T06:58:28;6.23;;;1.80;;
21181;SDS011;10749;46.296;7.524;2023-10-13T07:00:54;4.13;;;1.87;;
21181;SDS011;10749;46.296;7.524;2023-10-13T07:03:20;6.40;;;1.93;;
21181;SDS011;10749;46.296;7.524;2023-10-13T07:05:47;9.90;;;2.17;;
21181;SDS011;10749;46.296;7.524;2023-10-13T07:08:15;7.60;;;2.43;;
21181;SDS011;10749;46.296;7.524;2023-10-13T07:10:52;10.10;;;2.97;;
21181;SDS011;10749;46.296;7.524;2023-10-13T07:13:38;10.87;;;2.80;;
21181;SDS011;10749;46.296;7.524;2023-10-13T07:16:04;9.80;;;2.80;;
21181;SDS011;10749;46.296;7.524;2023-10-13T07:18:33;5.40;;;2.53;;
21181;SDS011;10749;46.296;7.524;2023-10-13T07:21:02;9.90;;;2.73;;
21181;SDS011;10749;46.296;7.524;2023-10-13T07:23:34;4.87;;;1.90;;
21181;SDS011;10749;46.296;7.524;2023-10-13T07:26:04;8.70;;;2.27;;
21181;SDS011;10749;46.296;7.524;2023-10-13T07:28:33;8.23;;;2.50;;
21181;SDS011;10749;46.296;7.524;2023-10-13T07:31:02;7.40;;;2.17;;
21181;SDS011;10749;46.296;7.524;2023-10-13T07:33:27;5.47;;;1.83;;
21181;SDS011;10749;46.296;7.524;2023-10-13T07:35:59;2.67;;;1.57;;
21181;SDS011;10749;46.296;7.524;2023-10-13T07:38:26;7.33;;;2.40;;
21181;SDS011;10749;46.296;7.524;2023-10-13T07:40:56;5.00;;;2.10;;
21181;SDS011;10749;46.296;7.524;2023-10-13T07:43:25;7.30;;;2.20;;
21181;SDS011;10749;46.296;7.524;2023-10-13T07:45:52;6.77;;;2.27;;
21181;SDS011;10749;46.296;7.524;2023-10-13T07:48:23;8.47;;;2.10;;
21181;SDS011;10749;46.296;7.524;2023-10-13T07:51:00;5.10;;;1.90;;
21181;SDS011;10749;46.296;7.524;2023-10-13T07:53:28;5.20;;;2.10;;
21181;SDS011;10749;46.296;7.524;2023-10-13T07:55:59;5.45;;;2.50;;
21181;SDS011;10749;46.296;7.524;2023-10-13T07:58:30;8.32;;;2.20;;
21181;SDS011;10749;46.296;7.524;2023-10-13T08:00:59;6.03;;;2.05;;
21181;SDS011;10749;46.296;7.524;2023-10-13T08:03:24;7.35;;;2.45;;
21181;SDS011;10749;46.296;7.524;2023-10-13T08:06:04;5.15;;;2.20;;
21181;SDS011;10749;46.296;7.524;2023-10-13T08:08:32;7.70;;;2.40;;
21181;SDS011;10749;46.296;7.524;2023-10-13T08:11:10;9.80;;;2.30;;
21181;SDS011;10749;46.296;7.524;2023-10-13T08:16:24;7.13;;;2.73;;
21181;SDS011;10749;46.296;7.524;2023-10-13T08:19:12;5.85;;;2.40;;
21181;SDS011;10749;46.296;7.524;2023-10-13T08:21:40;9.03;;;3.07;;
21181;SDS011;10749;46.296;7.524;2023-10-13T08:24:14;12.43;;;2.60;;
21181;SDS011;10749;46.296;7.524;2023-10-13T08:26:41;5.18;;;2.20;;
21181;SDS011;10749;46.296;7.524;2023-10-13T08:29:25;7.90;;;2.45;;
21181;SDS011;10749;46.296;7.524;2023-10-13T08:31:53;7.97;;;2.75;;
21181;SDS011;10749;46.296;7.524;2023-10-13T08:34:28;8.02;;;2.75;;
21181;SDS011;10749;46.296;7.524;2023-10-13T08:37:03;6.45;;;2.47;;
21181;SDS011;10749;46.296;7.524;2023-10-13T08:39:44;6.47;;;2.30;;
21181;SDS011;10749;46.296;7.524;2023-10-13T08:45:12;4.75;;;1.90;;
21181;SDS011;10749;46.296;7.524;2023-10-13T08:47:48;6.95;;;2.22;;
21181;SDS011;10749;46.296;7.524;2023-10-13T08:50:45;10.27;;;2.65;;
21181;SDS011;10749;46.296;7.524;2023-10-13T08:53:15;7.82;;;2.03;;
21181;SDS011;10749;46.296;7.524;2023-10-13T08:55:56;5.25;;;2.40;;
21181;SDS011;10749;46.296;7.524;2023-10-13T08:58:31;8.52;;;2.40;;
21181;SDS011;10749;46.296;7.524;2023-10-13T09:01:16;17.00;;;2.70;;
21181;SDS011;10749;46.296;7.524;2023-10-13T09:04:03;10.48;;;2.50;;
21181;SDS011;10749;46.296;7.524;2023-10-13T09:06:52;5.50;;;2.30;;
21181;SDS011;10749;46.296;7.524;2023-10-13T09:12:18;6.22;;;1.98;;
21181;SDS011;10749;46.296;7.524;2023-10-13T09:14:51;6.65;;;2.38;;
21181;SDS011;10749;46.296;7.524;2023-10-13T09:17:22;7.07;;;2.30;;
21181;SDS011;10749;46.296;7.524;2023-10-13T09:19:58;7.90;;;2.13;;
21181;SDS011;10749;46.296;7.524;2023-10-13T09:22:36;5.60;;;2.17;;
21181;SDS011;10749;46.296;7.524;2023-10-13T09:25:02;8.55;;;1.73;;
21181;SDS011;10749;46.296;7.524;2023-10-13T09:27:30;8.40;;;2.00;;
21181;SDS011;10749;46.296;7.524;2023-10-13T09:29:58;5.53;;;1.98;;
21181;SDS011;10749;46.296;7.524;2023-10-13T09:32:46;7.22;;;2.13;;
21181;SDS011;10749;46.296;7.524;2023-10-13T09:35:22;3.95;;;1.92;;
21181;SDS011;10749;46.296;7.524;2023-10-13T09:37:48;6.45;;;1.90;;
21181;SDS011;10749;46.296;7.524;2023-10-13T09:40:15;6.70;;;1.85;;
21181;SDS011;10749;46.296;7.524;2023-10-13T09:42:52;4.80;;;1.80;;
21181;SDS011;10749;46.296;7.524;2023-10-13T09:45:22;4.38;;;1.80;;
21181;SDS011;10749;46.296;7.524;2023-10-13T09:47:53;3.75;;;1.55;;
21181;SDS011;10749;46.296;7.524;2023-10-13T09:50:31;3.40;;;1.50;;
21181;SDS011;10749;46.296;7.524;2023-10-13T09:53:02;4.18;;;1.60;;
21181;SDS011;10749;46.296;7.524;2023-10-13T09:55:35;4.88;;;1.60;;
21181;SDS011;10749;46.296;7.524;2023-10-13T09:58:07;6.40;;;1.85;;
21181;SDS011;10749;46.296;7.524;2023-10-13T10:00:35;6.13;;;2.20;;
21181;SDS011;10749;46.296;7.524;2023-10-13T10:03:24;6.63;;;1.67;;
21181;SDS011;10749;46.296;7.524;2023-10-13T10:06:04;9.30;;;2.00;;
21181;SDS011;10749;46.296;7.524;2023-10-13T10:08:42;3.88;;;1.35;;
21181;SDS011;10749;46.296;7.524;2023-10-13T10:13:56;3.67;;;1.85;;
21181;SDS011;10749;46.296;7.524;2023-10-13T10:16:37;5.38;;;2.05;;
21181;SDS011;10749;46.296;7.524;2023-10-13T10:19:14;6.07;;;1.52;;
21181;SDS011;10749;46.296;7.524;2023-10-13T10:21:39;4.25;;;1.80;;
21181;SDS011;10749;46.296;7.524;2023-10-13T10:24:24;3.88;;;1.40;;
21181;SDS011;10749;46.296;7.524;2023-10-13T10:26:55;5.07;;;1.88;;
21181;SDS011;10749;46.296;7.524;2023-10-13T10:29:21;3.78;;;1.50;;
21181;SDS011;10749;46.296;7.524;2023-10-13T10:31:46;2.55;;;1.25;;
21181;SDS011;10749;46.296;7.524;2023-10-13T10:34:13;3.90;;;1.50;;
21181;SDS011;10749;46.296;7.524;2023-10-13T10:36:39;4.60;;;1.70;;
21181;SDS011;10749;46.296;7.524;2023-10-13T10:39:08;3.38;;;1.80;;
21181;SDS011;10749;46.296;7.524;2023-10-13T10:41:36;5.85;;;1.65;;
21181;SDS011;10749;46.296;7.524;2023-10-13T10:44:16;7.03;;;2.10;;
21181;SDS011;10749;46.296;7.524;2023-10-13T10:46:42;4.93;;;1.70;;
21181;SDS011;10749;46.296;7.524;2023-10-13T10:49:17;5.47;;;1.70;;
21181;SDS011;10749;46.296;7.524;2023-10-13T10:51:52;2.90;;;1.35;;
21181;SDS011;10749;46.296;7.524;2023-10-13T10:54:26;4.70;;;1.40;;
21181;SDS011;10749;46.296;7.524;2023-10-13T10:56:56;3.95;;;1.45;;
21181;SDS011;10749;46.296;7.524;2023-10-13T10:59:34;5.80;;;1.73;;
21181;SDS011;10749;46.296;7.524;2023-10-13T11:02:02;3.55;;;1.35;;
21181;SDS011;10749;46.296;7.524;2023-10-13T11:04:27;4.75;;;1.20;;
21181;SDS011;10749;46.296;7.524;2023-10-13T11:06:59;9.43;;;1.63;;
21181;SDS011;10749;46.296;7.524;2023-10-13T11:09:25;6.25;;;1.60;;
21181;SDS011;10749;46.296;7.524;2023-10-13T11:12:08;3.83;;;1.42;;
21181;SDS011;10749;46.296;7.524;2023-10-13T11:14:39;3.75;;;1.40;;
21181;SDS011;10749;46.296;7.524;2023-10-13T11:17:05;4.72;;;1.48;;
21181;SDS011;10749;46.296;7.524;2023-10-13T11:19:39;8.25;;;1.88;;
21181;SDS011;10749;46.296;7.524;2023-10-13T11:22:12;7.13;;;1.98;;
21181;SDS011;10749;46.296;7.524;2023-10-13T11:25:00;4.97;;;1.60;;
21181;SDS011;10749;46.296;7.524;2023-10-13T11:27:41;4.45;;;1.85;;
21181;SDS011;10749;46.296;7.524;2023-10-13T11:30:19;4.53;;;1.88;;
21181;SDS011;10749;46.296;7.524;2023-10-13T11:33:05;4.32;;;1.65;;
21181;SDS011;10749;46.296;7.524;2023-10-13T11:35:35;3.78;;;1.40;;
21181;SDS011;10749;46.296;7.524;2023-10-13T11:38:17;4.22;;;1.42;;
21181;SDS011;10749;46.296;7.524;2023-10-13T11:43:31;2.47;;;1.48;;
21181;SDS011;10749;46.296;7.524;2023-10-13T11:46:00;5.20;;;1.77;;
21181;SDS011;10749;46.296;7.524;2023-10-13T11:48:35;4.53;;;1.67;;
21181;SDS011;10749;46.296;7.524;2023-10-13T11:51:02;5.20;;;1.88;;
21181;SDS011;10749;46.296;7.524;2023-10-13T11:53:34;3.95;;;2.20;;
21181;SDS011;10749;46.296;7.524;2023-10-13T11:56:04;5.18;;;1.80;;
21181;SDS011;10749;46.296;7.524;2023-10-13T11:58:36;4.70;;;1.80;;
21181;SDS011;10749;46.296;7.524;2023-10-13T12:01:02;3.92;;;1.60;;
21181;SDS011;10749;46.296;7.524;2023-10-13T12:03:37;5.45;;;2.08;;
21181;SDS011;10749;46.296;7.524;2023-10-13T12:06:21;4.72;;;1.50;;
21181;SDS011;10749;46.296;7.524;2023-10-13T12:11:36;5.13;;;1.88;;
21181;SDS011;10749;46.296;7.524;2023-10-13T12:14:04;5.65;;;1.80;;
21181;SDS011;10749;46.296;7.524;2023-10-13T12:16:41;4.55;;;1.70;;
21181;SDS011;10749;46.296;7.524;2023-10-13T12:19:07;4.43;;;1.85;;
21181;SDS011;10749;46.296;7.524;2023-10-13T12:21:36;5.47;;;1.58;;
21181;SDS011;10749;46.296;7.524;2023-10-13T12:24:02;4.32;;;1.63;;
21181;SDS011;10749;46.296;7.524;2023-10-13T12:26:28;2.22;;;1.50;;
21181;SDS011;10749;46.296;7.524;2023-10-13T12:29:00;4.97;;;1.40;;
21181;SDS011;10749;46.296;7.524;2023-10-13T12:31:32;4.90;;;1.58;;
21181;SDS011;10749;46.296;7.524;2023-10-13T12:33:57;3.28;;;1.27;;
21181;SDS011;10749;46.296;7.524;2023-10-13T12:36:31;7.00;;;1.55;;
21181;SDS011;10749;46.296;7.524;2023-10-13T12:39:06;7.55;;;1.98;;
21181;SDS011;10749;46.296;7.524;2023-10-13T12:41:31;5.38;;;1.75;;
21181;SDS011;10749;46.296;7.524;2023-10-13T12:44:15;3.75;;;1.35;;
21181;SDS011;10749;46.296;7.524;2023-10-13T12:46:59;2.85;;;1.52;;
21181;SDS011;10749;46.296;7.524;2023-10-13T12:49:43;4.00;;;1.67;;
21181;SDS011;10749;46.296;7.524;2023-10-13T12:52:17;2.65;;;1.13;;
21181;SDS011;10749;46.296;7.524;2023-10-13T12:54:46;5.18;;;1.58;;
21181;SDS011;10749;46.296;7.524;2023-10-13T12:57:13;4.93;;;1.58;;
21181;SDS011;10749;46.296;7.524;2023-10-13T12:59:42;5.30;;;1.60;;
21181;SDS011;10749;46.296;7.524;2023-10-13T13:02:07;3.22;;;1.60;;
21181;SDS011;10749;46.296;7.524;2023-10-13T13:04:39;5.90;;;2.17;;
21181;SDS011;10749;46.296;7.524;2023-10-13T13:07:09;4.70;;;1.52;;
21181;SDS011;10749;46.296;7.524;2023-10-13T13:09:38;5.50;;;2.15;;
21181;SDS011;10749;46.296;7.524;2023-10-13T13:12:03;3.90;;;1.80;;
21181;SDS011;10749;46.296;7.524;2023-10-13T13:14:31;2.95;;;1.40;;
21181;SDS011;10749;46.296;7.524;2023-10-13T13:16:59;2.08;;;1.20;;
21181;SDS011;10749;46.296;7.524;2023-10-13T13:19:31;5.93;;;1.75;;
21181;SDS011;10749;46.296;7.524;2023-10-13T13:22:01;6.72;;;1.50;;
21181;SDS011;10749;46.296;7.524;2023-10-13T13:24:27;5.10;;;1.88;;
21181;SDS011;10749;46.296;7.524;2023-10-13T13:26:55;4.25;;;1.90;;
21181;SDS011;10749;46.296;7.524;2023-10-13T13:29:21;6.55;;;2.35;;
21181;SDS011;10749;46.296;7.524;2023-10-13T13:31:46;7.75;;;1.80;;
21181;SDS011;10749;46.296;7.524;2023-10-13T13:34:11;5.20;;;1.45;;
21181;SDS011;10749;46.296;7.524;2023-10-13T13:36:40;4.32;;;1.58;;
21181;SDS011;10749;46.296;7.524;2023-10-13T13:39:10;3.30;;;1.52;;
21181;SDS011;10749;46.296;7.524;2023-10-13T13:41:36;3.63;;;1.40;;
21181;SDS011;10749;46.296;7.524;2023-10-13T13:44:01;6.32;;;1.77;;
21181;SDS011;10749;46.296;7.524;2023-10-13T13:46:38;3.75;;;1.42;;
21181;SDS011;10749;46.296;7.524;2023-10-13T13:49:06;2.85;;;1.42;;
21181;SDS011;10749;46.296;7.524;2023-10-13T13:51:33;5.13;;;1.60;;
21181;SDS011;10749;46.296;7.524;2023-10-13T13:54:03;7.30;;;1.60;;
21181;SDS011;10749;46.296;7.524;2023-10-13T13:56:31;7.03;;;1.58;;
21181;SDS011;10749;46.296;7.524;2023-10-13T13:59:03;4.95;;;1.70;;
21181;SDS011;10749;46.296;7.524;2023-10-13T14:01:32;5.35;;;1.50;;
21181;SDS011;10749;46.296;7.524;2023-10-13T14:04:00;3.28;;;1.50;;
21181;SDS011;10749;46.296;7.524;2023-10-13T14:06:27;5.80;;;1.65;;
21181;SDS011;10749;46.296;7.524;2023-10-13T14:08:56;5.38;;;2.13;;
21181;SDS011;10749;46.296;7.524;2023-10-13T14:11:29;6.30;;;1.60;;
21181;SDS011;10749;46.296;7.524;2023-10-13T14:14:05;4.40;;;1.67;;
21181;SDS011;10749;46.296;7.524;2023-10-13T14:16:38;6.35;;;1.92;;
21181;SDS011;10749;46.296;7.524;2023-10-13T14:19:09;4.22;;;1.58;;
21181;SDS011;10749;46.296;7.524;2023-10-13T14:21:35;4.57;;;1.40;;
21181;SDS011;10749;46.296;7.524;2023-10-13T14:24:00;8.13;;;1.90;;
21181;SDS011;10749;46.296;7.524;2023-10-13T14:26:27;4.50;;;1.80;;
21181;SDS011;10749;46.296;7.524;2023-10-13T14:28:52;5.00;;;1.80;;
21181;SDS011;10749;46.296;7.524;2023-10-13T14:31:39;3.90;;;1.88;;
21181;SDS011;10749;46.296;7.524;2023-10-13T14:34:05;4.07;;;1.80;;
21181;SDS011;10749;46.296;7.524;2023-10-13T14:36:33;3.17;;;1.58;;
21181;SDS011;10749;46.296;7.524;2023-10-13T14:39:02;5.10;;;1.77;;
21181;SDS011;10749;46.296;7.524;2023-10-13T14:41:39;5.55;;;1.60;;
21181;SDS011;10749;46.296;7.524;2023-10-13T14:44:05;5.15;;;1.70;;
21181;SDS011;10749;46.296;7.524;2023-10-13T14:46:30;4.38;;;1.50;;
21181;SDS011;10749;46.296;7.524;2023-10-13T14:48:56;4.93;;;1.65;;
21181;SDS011;10749;46.296;7.524;2023-10-13T14:51:22;3.30;;;1.60;;
21181;SDS011;10749;46.296;7.524;2023-10-13T14:53:50;5.38;;;1.80;;
21181;SDS011;10749;46.296;7.524;2023-10-13T14:56:21;6.03;;;1.58;;
21181;SDS011;10749;46.296;7.524;2023-10-13T14:58:50;6.07;;;1.90;;
21181;SDS011;10749;46.296;7.524;2023-10-13T15:01:16;9.02;;;1.88;;
21181;SDS011;10749;46.296;7.524;2023-10-13T15:03:46;6.05;;;1.70;;
21181;SDS011;10749;46.296;7.524;2023-10-13T15:06:16;6.38;;;1.60;;
21181;SDS011;10749;46.296;7.524;2023-10-13T15:08:43;4.78;;;1.50;;
21181;SDS011;10749;46.296;7.524;2023-10-13T15:11:11;5.60;;;1.55;;
21181;SDS011;10749;46.296;7.524;2023-10-13T15:13:40;6.20;;;1.27;;
21181;SDS011;10749;46.296;7.524;2023-10-13T15:16:16;4.80;;;1.42;;
21181;SDS011;10749;46.296;7.524;2023-10-13T15:18:46;4.97;;;1.60;;
21181;SDS011;10749;46.296;7.524;2023-10-13T15:21:21;4.55;;;1.73;;
21181;SDS011;10749;46.296;7.524;2023-10-13T15:23:52;8.07;;;1.73;;
21181;SDS011;10749;46.296;7.524;2023-10-13T15:26:18;4.85;;;1.63;;
21181;SDS011;10749;46.296;7.524;2023-10-13T15:28:46;9.57;;;1.60;;
21181;SDS011;10749;46.296;7.524;2023-10-13T15:31:17;7.32;;;1.73;;
21181;SDS011;10749;46.296;7.524;2023-10-13T15:33:58;8.48;;;1.63;;
21181;SDS011;10749;46.296;7.524;2023-10-13T15:36:26;6.00;;;1.77;;
21181;SDS011;10749;46.296;7.524;2023-10-13T15:38:52;8.70;;;1.67;;
21181;SDS011;10749;46.296;7.524;2023-10-13T15:41:22;3.10;;;1.58;;